• Join FlightAware (Why Join?)
  • Login
  • US Flag 
12:02AM EST


 

Airport Tracker/Info


-or-


 

Live Flight TrackerFlight Track Log ✈ AFL150 ✈ 10-Aug-2013 ✈ UUEE / SVO - MUHA / HAV

Flight Track Log - Related Links

Times and Time Zones

All times are in EDT time to prevent confusion due to time zone crossing. See the AFL150 flight status page for this flight to view local times or setup timezone preferences in your user account.

Time Position Orientation Groundspeed Altitude Reporting Facility
EDT Latitude Longitude Course Direction KTS MPH feet Rate Location/Type
07:34AM 55.9640 37.3680 256° West 177 204 1,500  Level FlightAware
07:34AM 55.9610 37.3430 258° West 180 207 2,100 1,800 Climbing FlightAware
07:34AM 55.9560 37.3070 256° West 193 222 2,700 1,320 Climbing FlightAware
07:35AM 55.9510 37.2740 255° West 215 247 3,100 1,020 Climbing FlightAware
07:35AM 55.9450 37.2370 254° West 240 276 3,400 1,020 Climbing FlightAware
07:35AM 55.9430 37.2060 263° West 256 295 3,700 1,440 Climbing FlightAware
07:36AM 55.9350 37.1560 254° West 249 287 4,400 1,800 Climbing FlightAware
07:36AM 55.9540 37.1070 305° West 269 310 5,200 2,100 Climbing FlightAware
07:36AM 55.9590 37.0660 282° West 267 307 5,800 2,340 Climbing FlightAware
07:36AM 55.9620 37.0450 284° West 265 305 6,300 2,580 Climbing FlightAware
07:37AM 55.9740 37.0040 298° West 264 304 7,200 3,000 Climbing FlightAware
07:37AM 55.9850 36.9650 297° West 259 298 8,300 2,820 Climbing FlightAware
07:37AM 55.9950 36.9290 296° West 260 299 9,100 2,160 Climbing FlightAware
07:38AM 56.0090 36.8800 297° West 267 307 9,900 1,680 Climbing FlightAware
07:39AM 56.0320 36.7970 296° West 292 336 10,900 1,260 Climbing FlightAware
07:39AM 56.0530 36.7180 295° West 328 377 11,500 1,140 Climbing FlightAware
07:40AM 56.0790 36.6220 296° West 352 405 12,300 1,620 Climbing FlightAware
07:40AM 56.1030 36.5310 295° West 361 415 13,500 1,920 Climbing FlightAware
07:41AM 56.1270 36.4420 296° West 370 426 14,500 1,800 Climbing FlightAware
07:41AM 56.1550 36.3380 296° West 383 441 15,600 1,740 Climbing FlightAware
07:42AM 56.1830 36.2330 296° West 394 453 16,600 1,800 Climbing FlightAware
07:43AM 56.2140 36.1170 296° West 402 463 17,900 1,860 Climbing FlightAware
07:43AM 56.2400 36.0190 296° West 408 470 18,900 1,740 Climbing FlightAware
07:44AM 56.2730 35.8910 295° West 416 479 20,000 1,680 Climbing FlightAware
07:45AM 56.3020 35.7800 295° West 421 484 21,100 1,620 Climbing FlightAware
07:45AM 56.3320 35.6660 295° West 426 490 22,000 1,380 Climbing FlightAware
07:46AM 56.3580 35.5630 295° West 435 501 22,700 1,260 Climbing FlightAware
07:46AM 56.3860 35.4570 296° West 441 507 23,400 1,380 Climbing FlightAware
07:47AM 56.4240 35.3410 301° West 447 514 24,300 1,320 Climbing FlightAware
07:47AM 56.4630 35.2490 308° West 453 521 24,900 1,380 Climbing FlightAware
07:48AM 56.5250 35.1410 316° Northwest 456 525 26,000 1,320 Climbing FlightAware
07:49AM 56.5790 35.0720 325° Northwest 464 534 26,500 840 Climbing FlightAware
07:49AM 56.6490 35.0070 333° Northwest 474 545 27,000 900 Climbing FlightAware
07:50AM 56.7220 34.9630 342° North 482 555 27,600 960 Climbing FlightAware
07:50AM 56.8010 34.9400 351° North 491 565 28,200 900 Climbing FlightAware
07:51AM 56.8900 34.9400 360° North 497 572 28,700 900 Climbing FlightAware
07:52AM 56.9730 34.9480 North 501 577 29,300 1,200 Climbing FlightAware
07:52AM 57.0610 34.9520 North 497 572 30,200 1,380 Climbing FlightAware
07:53AM 57.1370 34.9550 North 491 565 31,000 1,260 Climbing FlightAware
07:53AM 57.2310 34.9580 North 488 562 31,800 1,080 Climbing FlightAware
07:54AM 57.2980 34.9590 360° North 487 560 32,300 960 Climbing FlightAware
07:55AM 57.3710 34.9620 North 486 559 32,900 1,020 Climbing FlightAware
07:55AM 57.4540 34.9640 North 485 558 33,500 780 Climbing FlightAware
07:56AM 57.5550 34.9630 360° North 482 555 34,000 360 Climbing FlightAware
07:56AM 57.6320 34.9430 352° North 480 552 34,000  Level FlightAware
07:57AM 57.7050 34.9080 346° North 474 545 34,000  Level FlightAware
07:58AM 57.7660 34.8650 339° North 468 539 34,000  Level FlightAware
07:58AM 57.8430 34.7900 333° Northwest 461 531 34,000  Level FlightAware
07:59AM 57.9040 34.7110 325° Northwest 456 525 34,000  Level FlightAware
07:59AM 57.9610 34.6310 323° Northwest 455 524 34,000  Level FlightAware
08:00AM 58.0290 34.5350 323° Northwest 453 521 34,000  Level FlightAware
08:01AM 58.0890 34.4510 324° Northwest 453 521 34,000  Level FlightAware
08:01AM 58.1470 34.3690 323° Northwest 454 522 34,000  Level FlightAware
08:02AM 58.1980 34.2940 322° Northwest 452 520 34,000  Level FlightAware
08:02AM 58.2600 34.1990 321° Northwest 454 522 34,000  Level FlightAware
08:03AM 58.3180 34.1090 321° Northwest 453 521 34,000  Level FlightAware
08:04AM 58.3700 34.0290 321° Northwest 454 522 34,000  Level FlightAware
08:04AM 58.4280 33.9390 321° Northwest 454 522 34,000  Level FlightAware
08:05AM 58.4940 33.8380 321° Northwest 455 524 34,000  Level FlightAware
08:05AM 58.5450 33.7580 321° Northwest 455 524 34,000  Level FlightAware
08:06AM 58.5950 33.6800 321° Northwest 455 524 34,000  Level FlightAware
08:07AM 58.6450 33.6020 321° Northwest 455 524 34,000  Level FlightAware
08:07AM 58.7130 33.4960 321° Northwest 455 524 34,000  Level FlightAware
08:08AM 58.7630 33.4180 321° Northwest 455 524 34,000  Level FlightAware
08:09AM 58.8150 33.3380 321° Northwest 455 524 34,000  Level FlightAware
08:09AM 58.8650 33.2590 321° Northwest 455 524 34,000  Level FlightAware
08:10AM 58.9150 33.1810 321° Northwest 455 524 34,000  Level FlightAware
08:10AM 58.9660 33.1000 321° Northwest 455 524 34,000  Level FlightAware
08:11AM 59.0170 33.0210 321° Northwest 455 524 34,000  Level FlightAware
08:12AM 59.1260 32.7000 304° West 34,000  Level FlightAware
08:12AM 59.1330 32.6860 314° West 460 529 34,000  Level FlightAware
08:12AM 59.1950 32.5620 314° West 459 528 34,000  Level FlightAware
08:13AM 59.2450 32.4620 314° West 457 526 34,000  Level FlightAware
08:13AM 59.2970 32.3590 315° West 456 525 34,000  Level FlightAware
08:14AM 59.3530 32.2460 314° West 457 526 34,000  Level FlightAware
08:15AM 59.4000 32.1480 313° West 454 522 34,000  Level FlightAware
08:15AM 59.4420 32.0320 305° West 448 516 34,000  Level FlightAware
08:16AM 59.4820 31.8920 299° West 441 507 34,000  Level FlightAware
08:17AM 59.5150 31.7460 294° West 440 506 34,000  Level FlightAware
08:17AM 59.5400 31.6360 294° West 439 505 34,000  Level FlightAware
08:18AM 59.5640 31.5240 293° West 438 504 34,000  Level FlightAware
08:18AM 59.5910 31.4000 293° West 437 503 34,000  Level FlightAware
08:19AM 59.6190 31.2680 293° West 436 502 34,000  Level FlightAware
08:19AM 59.6460 31.1430 293° West 435 501 34,000  Level FlightAware
08:20AM 59.6770 30.9960 293° West 436 502 34,000  Level FlightAware
08:20AM 59.7010 30.8840 293° West 436 502 34,000  Level FlightAware
08:21AM 59.7310 30.7380 292° West 437 503 34,000  Level FlightAware
08:22AM 59.7580 30.5930 290° West 434 499 34,000  Level FlightAware
08:22AM 59.7780 30.4540 286° West 432 497 34,000  Level FlightAware
08:23AM 59.7860 30.3360 278° West 428 493 34,000  Level FlightAware
08:24AM 59.7870 30.1700 271° West 424 488 34,000  Level FlightAware
08:24AM 59.7770 30.0300 262° West 420 483 34,000  Level FlightAware
08:25AM 59.7610 29.9000 256° West 421 484 34,000  Level FlightAware
08:25AM 59.7440 29.7660 256° West 421 484 34,000  Level FlightAware
08:26AM 59.7270 29.6370 255° West 421 484 34,000  Level FlightAware
08:27AM 59.7060 29.4700 256° West 423 487 34,000  Level FlightAware
08:27AM 59.6910 29.3560 255° West 424 488 34,000  Level FlightAware
08:28AM 59.6740 29.2270 255° West 424 488 34,000  Level FlightAware
08:28AM 59.6540 29.0750 255° West 423 487 34,000  Level FlightAware
08:29AM 59.6390 28.9650 255° West 423 487 34,000  Level FlightAware
08:30AM 59.6310 28.8110 264° West 429 494 34,000  Level FlightAware
08:30AM 59.6340 28.6740 273° West 433 498 34,000  Level FlightAware
08:31AM 59.6440 28.5630 280° West 439 505 34,000  Level FlightAware
08:31AM 59.6670 28.4070 286° West 440 506 34,000  Level FlightAware
08:32AM 59.6850 28.2770 285° West 440 506 34,000  Level FlightAware
08:32AM 59.7050 28.1350 286° West 440 506 34,000  Level FlightAware
08:33AM 59.7240 28.0000 286° West 441 507 34,000  Level FlightAware
08:34AM 59.7420 27.8730 286° West 440 506 34,000  Level FlightAware
08:34AM 59.7620 27.7310 286° West 440 506 34,000  Level FlightAware
08:35AM 59.7800 27.6020 286° West 441 507 34,000  Level FlightAware
08:35AM 59.8020 27.4430 285° West 442 509 34,000  Level FlightAware
08:36AM 59.8180 27.3220 285° West 442 509 34,000  Level FlightAware
08:37AM 59.8380 27.1760 285° West 441 507 34,000  Level FlightAware
08:37AM 59.8550 27.0460 285° West 442 509 34,000  Level FlightAware
08:38AM 59.8730 26.9130 285° West 443 510 34,000  Level FlightAware
08:38AM 59.8890 26.7860 284° West 444 511 34,000  Level FlightAware
08:39AM 59.9090 26.6350 285° West 442 509 34,000  Level FlightAware
08:39AM 59.9270 26.4970 285° West 441 507 34,000  Level FlightAware
08:40AM 59.9490 26.3590 288° West 447 514 34,000  Level FlightAware
08:41AM 59.9820 26.2170 295° West 454 522 34,000  Level FlightAware
08:41AM 60.0160 26.1020 301° West 459 528 34,000  Level FlightAware
08:42AM 60.0590 25.9820 306° West 457 526 34,000  Level FlightAware
08:42AM 60.0990 25.8470 301° West 456 525 34,000  Level FlightAware
08:43AM 60.1330 25.7310 301° West 456 525 34,000  Level FlightAware
08:44AM 60.1720 25.5970 300° West 455 524 34,000  Level FlightAware
08:44AM 60.2120 25.4610 301° West 454 522 34,000  Level FlightAware
08:45AM 60.2460 25.3470 301° West 454 522 34,000  Level FlightAware
08:45AM 60.2840 25.2190 301° West 453 521 34,000  Level FlightAware
08:46AM 60.3190 25.1000 301° West 452 520 34,000  Level FlightAware
08:47AM 60.3620 24.9530 301° West 452 520 34,000  Level FlightAware
08:47AM 60.3960 24.8360 301° West 450 518 34,000  Level FlightAware
08:48AM 60.4290 24.7200 300° West 450 518 34,000  Level FlightAware
08:48AM 60.4680 24.5860 301° West 449 517 34,000  Level FlightAware
08:49AM 60.5070 24.4490 300° West 448 516 34,000  Level FlightAware
08:49AM 60.5420 24.3250 300° West 447 514 34,000  Level FlightAware
08:50AM 60.5760 24.2050 300° West 447 514 34,000  Level FlightAware
08:51AM 60.6130 24.0720 300° West 445 512 34,000  Level FlightAware
08:51AM 60.6470 23.9530 300° West 445 512 34,000  Level FlightAware
08:52AM 60.6820 23.8280 300° West 445 512 34,000  Level FlightAware
08:52AM 60.7190 23.6920 299° West 446 513 34,000  Level FlightAware
08:53AM 60.7560 23.5580 300° West 446 513 34,000  Level FlightAware
08:53AM 60.7870 23.4450 299° West 447 514 34,000  Level FlightAware
08:54AM 60.8210 23.3170 299° West 448 516 34,000  Level FlightAware
08:55AM 60.8620 23.1690 300° West 447 514 34,000  Level FlightAware
08:55AM 60.8920 23.0570 299° West 448 516 34,000  Level FlightAware
08:56AM 60.9260 22.9270 298° West 447 514 34,000  Level FlightAware
08:56AM 60.9600 22.7990 299° West 448 516 34,000  Level FlightAware
08:57AM 60.9960 22.6650 299° West 450 518 34,000  Level FlightAware
08:58AM 61.0280 22.5420 298° West 449 517 34,000  Level FlightAware
08:58AM 61.0640 22.4040 298° West 450 518 34,000  Level FlightAware
08:59AM 61.1010 22.2620 298° West 450 518 34,000  Level FlightAware
08:59AM 61.1330 22.1350 298° West 451 519 34,000  Level FlightAware
09:00AM 61.1690 21.9970 298° West 452 520 34,000  Level FlightAware
09:00AM 61.1980 21.8830 298° West 452 520 34,000  Level FlightAware
09:01AM 61.2360 21.7300 297° West 452 520 34,000  Level FlightAware
09:02AM 61.2710 21.5920 298° West 453 521 34,000  Level FlightAware
09:02AM 61.3110 21.4320 298° West 453 521 34,000  Level FlightAware
09:03AM 61.3380 21.3230 297° West 452 520 34,000  Level FlightAware
09:03AM 61.3740 21.1770 297° West 450 518 34,000  Level FlightAware
09:04AM 61.4170 21.0030 297° West 449 517 34,000  Level FlightAware
09:05AM 61.4500 20.8650 297° West 448 516 34,000  Level FlightAware
09:05AM 61.4830 20.7300 297° West 449 517 34,000  Level FlightAware
09:06AM 61.5100 20.6200 297° West 447 514 34,000  Level FlightAware
09:07AM 61.5470 20.4630 296° West 448 516 34,000  Level FlightAware
09:07AM 61.5800 20.3230 296° West 447 514 34,000  Level FlightAware
09:08AM 61.6140 20.1790 296° West 448 516 34,000  Level FlightAware
09:08AM 61.6420 20.0600 296° West 448 516 34,000  Level FlightAware
09:09AM 61.6750 19.9170 296° West 449 517 34,000  Level FlightAware
09:09AM 61.7110 19.7650 297° West 449 517 34,000  Level FlightAware
09:10AM 61.7370 19.6510 296° West 448 516 34,000  Level FlightAware
09:11AM 61.7690 19.5100 296° West 445 512 34,000  Level FlightAware
09:11AM 61.8030 19.3730 298° West 449 517 34,000  Level FlightAware
09:12AM 61.8460 19.2000 298° West 450 518 34,000  Level FlightAware
09:13AM 61.8790 19.0650 297° West 451 519 34,000  Level FlightAware
09:13AM 61.9090 18.9420 297° West 453 521 34,000  Level FlightAware
09:14AM 61.9420 18.8070 298° West 454 522 34,000  Level FlightAware
09:14AM 61.9760 18.6640 297° West 455 524 34,000  Level FlightAware
09:15AM 62.0130 18.5090 297° West 451 519 34,000  Level FlightAware
09:15AM 62.0420 18.3840 296° West 451 519 34,000  Level FlightAware
09:16AM 62.0790 18.2260 297° West 453 521 34,000  Level FlightAware
09:17AM 62.1090 18.0980 297° West 455 524 34,000  Level FlightAware
09:17AM 62.1420 17.9590 297° West 456 525 34,000  Level FlightAware
09:18AM 62.1740 17.8200 296° West 457 526 34,000  Level FlightAware
09:18AM 62.2060 17.6840 297° West 465 535 34,000  Level FlightAware
09:19AM 62.2670 17.5410 313° West 478 550 34,000  Level FlightAware
09:19AM 62.3150 17.4400 316° Northwest 477 549 34,000  Level FlightAware
09:20AM 62.3710 17.3210 315° West 476 548 34,000  Level FlightAware
09:21AM 62.4330 17.1880 315° West 480 552 34,000  Level FlightAware
09:21AM 62.4810 17.0860 316° Northwest 479 551 34,000  Level FlightAware
09:22AM 62.5350 16.9700 315° West 480 552 34,000  Level FlightAware
09:22AM 62.5910 16.8480 315° West 481 554 34,000  Level FlightAware
09:23AM 62.6530 16.7150 315° West 480 552 34,000  Level FlightAware
09:24AM 62.7000 16.6110 315° West 480 552 34,000  Level FlightAware
09:24AM 62.7610 16.4760 315° West 479 551 34,000  Level FlightAware
09:25AM 62.8090 16.3710 315° West 478 550 34,000  Level FlightAware
09:25AM 62.8710 16.2320 314° West 478 550 34,000  Level FlightAware
09:26AM 62.9190 16.1260 315° West 478 550 34,000  Level FlightAware
09:26AM 62.9730 16.0040 314° West 473 544 34,000  Level FlightAware
09:27AM 63.0320 15.8710 314° West 479 551 34,000  Level FlightAware
09:28AM 63.0880 15.7430 314° West 480 552 34,000  Level FlightAware
09:28AM 63.1420 15.6170 314° West 480 552 34,000  Level FlightAware
09:29AM 63.1910 15.5050 314° West 478 550 34,000  Level FlightAware
09:29AM 63.2410 15.3900 314° West 477 549 34,000  Level FlightAware
09:30AM 63.2940 15.2670 314° West 476 548 34,000  Level FlightAware
09:31AM 63.3460 15.1440 313° West 477 549 34,000  Level FlightAware
09:31AM 63.4070 15.0000 313° West 478 550 34,000  Level FlightAware
09:32AM 63.4570 14.8810 313° West 477 549 34,000  Level FlightAware
09:32AM 63.5120 14.7500 313° West 478 550 34,000  Level FlightAware
09:33AM 63.5660 14.6220 313° West 477 549 34,000  Level FlightAware
09:33AM 63.6140 14.5060 313° West 476 548 34,000  Level FlightAware
09:34AM 63.6650 14.3820 313° West 475 547 34,000  Level FlightAware
09:35AM 63.7190 14.2500 313° West 474 545 34,000  Level FlightAware
09:35AM 63.7750 14.1140 313° West 474 545 34,000  Level FlightAware
09:36AM 63.8230 13.9940 312° West 474 545 34,000  Level FlightAware
09:36AM 63.8760 13.8630 313° West 474 545 34,000  Level FlightAware
09:37AM 63.9230 13.7450 312° West 472 543 34,000  Level FlightAware
09:38AM 63.9760 13.6110 312° West 471 542 34,000  Level FlightAware
09:38AM 64.0260 13.4860 312° West 470 541 34,000  Level FlightAware
09:39AM 64.0810 13.3450 312° West 471 542 34,000  Level FlightAware
09:39AM 64.1280 13.2270 312° West 471 542 34,000  Level FlightAware
09:40AM 64.1810 13.0890 311° West 470 541 34,000  Level FlightAware
09:40AM 64.2270 12.9700 312° West 469 540 34,000  Level FlightAware
09:41AM 64.2780 12.8360 311° West 468 539 34,000  Level FlightAware
09:42AM 64.3300 12.7010 312° West 468 539 34,000  Level FlightAware
09:42AM 64.3740 12.5850 311° West 466 536 34,000  Level FlightAware
09:43AM 64.4240 12.4520 311° West 465 535 34,000  Level FlightAware
09:43AM 64.4800 12.3040 311° West 464 534 34,000  Level FlightAware
09:44AM 64.5250 12.1830 311° West 464 534 34,000  Level FlightAware
09:45AM 64.5710 12.0560 310° West 465 535 34,000  Level FlightAware
09:45AM 64.6250 11.9100 311° West 467 537 34,000  Level FlightAware
09:46AM 64.6760 11.7720 311° West 467 537 34,000  Level FlightAware
09:46AM 64.7260 11.6320 310° West 467 537 34,000  Level FlightAware
09:47AM 64.7670 11.5200 311° West 466 536 34,000  Level FlightAware
09:48AM 64.8200 11.3740 311° West 466 536 34,000  Level FlightAware
09:48AM 64.8670 11.2400 310° West 465 535 34,000  Level FlightAware
09:49AM 64.9170 11.1010 310° West 465 535 34,000  Level FlightAware
09:49AM 64.9650 10.9630 309° West 467 537 34,000  Level FlightAware
09:50AM 65.0080 10.8400 310° West 468 539 34,000  Level FlightAware
09:50AM 65.0590 10.6940 310° West 469 540 34,000  Level FlightAware
09:51AM 65.1030 10.5670 309° West 470 541 34,000  Level FlightAware
09:52AM 65.1550 10.4150 309° West 471 542 34,000  Level FlightAware
09:52AM 65.2020 10.2800 310° West 471 542 34,000  Level FlightAware
09:53AM 65.2510 10.1350 309° West 471 542 34,000  Level FlightAware
09:53AM 65.3000 9.9880 309° West 473 544 34,000  Level FlightAware
09:54AM 65.3470 9.8490 309° West 472 543 34,000  Level FlightAware
09:55AM 65.3940 9.7080 309° West 473 544 34,000  Level FlightAware
09:55AM 65.4450 9.5540 309° West 474 545 34,000  Level FlightAware
09:56AM 65.4880 9.4220 308° West 474 545 34,000  Level FlightAware
09:56AM 65.5380 9.2680 308° West 475 547 34,000  Level FlightAware
09:57AM 65.5820 9.1340 308° West 475 547 34,000  Level FlightAware
09:57AM 65.6310 8.9820 308° West 476 548 34,000  Level FlightAware
09:58AM 65.6790 8.8340 308° West 475 547 34,000  Level FlightAware
09:59AM 65.7220 8.6930 307° West 475 547 34,000  Level FlightAware
09:59AM 65.7630 8.5620 307° West 475 547 34,000  Level FlightAware
10:00AM 65.8030 8.4310 307° West 475 547 34,000  Level FlightAware
10:00AM 65.8450 8.2970 307° West 475 547 34,000  Level FlightAware
10:01AM 65.8850 8.1650 307° West 475 547 34,000  Level FlightAware
10:02AM 65.9250 8.0340 307° West 475 547 34,000  Level FlightAware
10:02AM 65.9670 7.8980 307° West 475 547 34,000  Level FlightAware
10:03AM 66.0090 7.7630 307° West 475 547 34,000  Level FlightAware
10:04AM 66.0490 7.6300 307° West 475 547 34,000  Level FlightAware
10:04AM 66.0900 7.4980 308° West 475 547 34,000  Level FlightAware
10:05AM 66.1300 7.3650 307° West 475 547 34,000  Level FlightAware
10:05AM 66.1700 7.2320 307° West 475 547 34,000  Level FlightAware
10:06AM 66.2110 7.0990 307° West 475 547 34,000  Level FlightAware
10:07AM 66.2520 6.9620 307° West 475 547 34,000  Level FlightAware
10:07AM 66.3060 6.7840 307° West 475 547 34,000  Level FlightAware
10:08AM 66.3470 6.6510 308° West 475 547 34,000  Level FlightAware
10:11AM 66.4187 5.4175 279° West  Level Estimated
10:12AM 66.4438 4.9382 278° West  Level Estimated
10:13AM 66.4675 4.4580 277° West  Level Estimated
10:14AM 66.4897 3.9769 277° West  Level Estimated
10:15AM 66.5104 3.4949 276° West  Level Estimated
10:16AM 66.5296 3.0122 276° West  Level Estimated
10:17AM 66.5474 2.5288 275° West  Level Estimated
10:18AM 66.5636 2.0447 275° West  Level Estimated
10:19AM 66.5784 1.5600 275° West  Level Estimated
10:20AM 66.5916 1.0747 274° West  Level Estimated
10:21AM 66.6034 0.5890 274° West  Level Estimated
10:22AM 66.6136 0.1028 273° West  Level Estimated
10:23AM 66.6224 -0.3837 273° West  Level Estimated
10:24AM 66.6296 -0.8706 272° West  Level Estimated
10:25AM 66.6353 -1.3577 272° West  Level Estimated
10:26AM 66.6396 -1.8450 271° West  Level Estimated
10:27AM 66.6423 -2.3325 271° West  Level Estimated
10:28AM 66.6435 -2.8200 271° West  Level Estimated
10:29AM 66.6432 -3.3075 270° West  Level Estimated
10:30AM 66.6414 -3.7950 270° West  Level Estimated
10:31AM 66.6381 -4.2824 269° West  Level Estimated
10:32AM 66.6332 -4.7697 269° West  Level Estimated
10:33AM 66.6269 -5.2567 268° West  Level Estimated
10:34AM 66.6190 -5.7434 268° West  Level Estimated
10:35AM 66.6097 -6.2298 267° West  Level Estimated
10:36AM 66.5988 -6.7158 267° West  Level Estimated
10:37AM 66.5865 -7.2014 267° West  Level Estimated
10:38AM 66.5726 -7.6864 266° West  Level Estimated
10:39AM 66.5573 -8.1709 266° West  Level Estimated
10:40AM 66.5404 -8.6547 265° West  Level Estimated
10:41AM 66.5221 -9.1379 265° West  Level Estimated
10:42AM 66.5023 -9.6203 264° West  Level Estimated
10:43AM 66.4810 -10.1019 264° West  Level Estimated
10:44AM 66.4582 -10.5827 263° West  Level Estimated
10:45AM 66.4339 -11.0626 263° West  Level Estimated
10:46AM 66.4082 -11.5415 263° West  Level Estimated
10:47AM 66.3810 -12.0194 262° West  Level Estimated
10:48AM 66.3524 -12.4962 262° West  Level Estimated
10:49AM 66.3223 -12.9719 261° West  Level Estimated
10:50AM 66.2907 -13.4465 261° West  Level Estimated
10:51AM 66.2577 -13.9198 260° West  Level Estimated
10:52AM 66.2233 -14.3919 260° West  Level Estimated
10:53AM 66.1874 -14.8626 260° West  Level Estimated
10:54AM 66.1501 -15.3321 259° West  Level Estimated
10:55AM 66.1114 -15.8000 259° West  Level Estimated
10:56AM 66.0713 -16.2666 258° West  Level Estimated
10:57AM 66.0297 -16.7316 258° West  Level Estimated
10:58AM 65.9868 -17.1951 257° West  Level Estimated
10:59AM 65.9425 -17.6570 257° West  Level Estimated
11:00AM 65.8968 -18.1173 257° West  Level Estimated
11:01AM 65.8497 -18.5760 256° West  Level Estimated
11:02AM 65.8013 -19.0329 256° West  Level Estimated
11:03AM 65.7515 -19.4881 255° West  Level Estimated
11:04AM 65.7004 -19.9415 255° West  Level Estimated
11:05AM 65.6479 -20.3931 254° West  Level Estimated
11:06AM 65.5941 -20.8429 254° West  Level Estimated
11:07AM 65.5390 -21.2908 254° West  Level Estimated
11:08AM 65.4825 -21.7367 253° West  Level Estimated
11:09AM 65.4248 -22.1807 253° West  Level Estimated
11:10AM 65.3657 -22.6228 252° West  Level Estimated
11:11AM 65.3054 -23.0628 252° West  Level Estimated
11:12AM 65.2438 -23.5008 252° West  Level Estimated
11:13AM 65.1809 -23.9368 251° West  Level Estimated
11:14AM 65.1168 -24.3707 251° West  Level Estimated
11:15AM 65.0514 -24.8024 250° West  Level Estimated
11:16AM 64.9847 -25.2320 250° West  Level Estimated
11:17AM 64.9169 -25.6595 250° West  Level Estimated
11:18AM 64.8478 -26.0848 249° West  Level Estimated
11:19AM 64.7775 -26.5079 249° West  Level Estimated
11:20AM 64.7061 -26.9288 248° West  Level Estimated
11:21AM 64.6334 -27.3474 248° West  Level Estimated
11:22AM 64.5596 -27.7638 248° West  Level Estimated
11:23AM 64.4846 -28.1779 247° West  Level Estimated
11:24AM 64.4084 -28.5898 247° West  Level Estimated
11:25AM 64.3311 -28.9993 247° West  Level Estimated
11:26AM 64.2526 -29.4065 246° West  Level Estimated
11:27AM 64.1731 -29.8114 246° West  Level Estimated
11:28AM 64.0924 -30.2140 246° West  Level Estimated
11:29AM 64.0106 -30.6143 245° Southwest  Level Estimated
11:30AM 63.9277 -31.0121 245° Southwest  Level Estimated
11:31AM 63.8437 -31.4076 244° Southwest  Level Estimated
11:32AM 63.7587 -31.8008 244° Southwest  Level Estimated
11:33AM 63.6726 -32.1916 244° Southwest  Level Estimated
11:34AM 63.5854 -32.5800 243° Southwest  Level Estimated
11:35AM 63.4972 -32.9660 243° Southwest  Level Estimated
11:36AM 63.4080 -33.3496 243° Southwest  Level Estimated
11:37AM 63.3177 -33.7308 242° Southwest  Level Estimated
11:38AM 63.2264 -34.1097 242° Southwest  Level Estimated
11:39AM 63.1342 -34.4861 242° Southwest  Level Estimated
11:40AM 63.0409 -34.8601 241° Southwest  Level Estimated
11:41AM 62.9467 -35.2318 241° Southwest  Level Estimated
11:42AM 62.8514 -35.6010 241° Southwest  Level Estimated
11:43AM 62.7553 -35.9678 240° Southwest  Level Estimated
11:44AM 62.6581 -36.3323 240° Southwest  Level Estimated
11:45AM 62.5601 -36.6943 240° Southwest  Level Estimated
11:46AM 62.4611 -37.0540 239° Southwest  Level Estimated
11:47AM 62.3612 -37.4113 239° Southwest  Level Estimated
11:48AM 62.2604 -37.7662 239° Southwest  Level Estimated
11:49AM 62.1586 -38.1187 238° Southwest  Level Estimated
11:50AM 62.0560 -38.4688 238° Southwest  Level Estimated
11:51AM 61.9525 -38.8166 238° Southwest  Level Estimated
11:52AM 61.8482 -39.1620 237° Southwest  Level Estimated
11:53AM 61.7430 -39.5051 237° Southwest  Level Estimated
11:54AM 61.6369 -39.8458 237° Southwest  Level Estimated
11:55AM 61.5300 -40.1842 237° Southwest  Level Estimated
11:56AM 61.4222 -40.5202 236° Southwest  Level Estimated
11:57AM 61.3137 -40.8540 236° Southwest  Level Estimated
11:58AM 61.2043 -41.1854 236° Southwest  Level Estimated
11:59AM 61.0941 -41.5145 235° Southwest  Level Estimated
12:00PM 60.9831 -41.8413 235° Southwest  Level Estimated
12:01PM 60.8714 -42.1658 235° Southwest  Level Estimated
12:02PM 60.7588 -42.4881 235° Southwest  Level Estimated
12:03PM 60.6455 -42.8081 234° Southwest  Level Estimated
12:04PM 60.5314 -43.1259 234° Southwest  Level Estimated
12:05PM 60.4166 -43.4414 234° Southwest  Level Estimated
12:06PM 60.3011 -43.7547 233° Southwest  Level Estimated
12:07PM 60.1848 -44.0658 233° Southwest  Level Estimated
12:08PM 60.0678 -44.3746 233° Southwest  Level Estimated
12:09PM 59.9501 -44.6813 233° Southwest  Level Estimated
12:10PM 59.8316 -44.9858 232° Southwest  Level Estimated
12:11PM 59.7125 -45.2882 232° Southwest  Level Estimated
12:12PM 59.5927 -45.5883 232° Southwest  Level Estimated
12:13PM 59.4722 -45.8864 232° Southwest  Level Estimated
12:14PM 59.3510 -46.1823 231° Southwest  Level Estimated
12:15PM 59.2291 -46.4761 231° Southwest  Level Estimated
12:16PM 59.1067 -46.7679 231° Southwest  Level Estimated
12:17PM 58.9835 -47.0575 231° Southwest  Level Estimated
12:18PM 58.8597 -47.3451 230° Southwest  Level Estimated
12:19PM 58.7819 -47.5241 230° Southwest  Level Estimated
12:20PM 58.7038 -47.7023 230° Southwest  Level Estimated
12:21PM 58.6255 -47.8797 230° Southwest  Level Estimated
12:22PM 58.5469 -48.0563 230° Southwest  Level Estimated
12:23PM 58.4681 -48.2321 229° Southwest  Level Estimated
12:24PM 58.3890 -48.4072 229° Southwest  Level Estimated
12:25PM 58.3097 -48.5814 229° Southwest  Level Estimated
12:26PM 58.2302 -48.7549 229° Southwest  Level Estimated
12:27PM 58.1505 -48.9276 229° Southwest  Level Estimated
12:28PM 58.0705 -49.0995 229° Southwest  Level Estimated
12:29PM 57.9903 -49.2707 229° Southwest  Level Estimated
12:30PM 57.9098 -49.4411 228° Southwest  Level Estimated
12:31PM 57.8291 -49.6107 228° Southwest  Level Estimated
12:32PM 57.7482 -49.7795 228° Southwest  Level Estimated
12:33PM 57.6671 -49.9476 228° Southwest  Level Estimated
12:34PM 57.5858 -50.1150 228° Southwest  Level Estimated
12:35PM 57.5042 -50.2816 228° Southwest  Level Estimated
12:36PM 57.4224 -50.4475 228° Southwest  Level Estimated
12:37PM 57.3404 -50.6126 227° Southwest  Level Estimated
12:38PM 57.2582 -50.7770 227° Southwest  Level Estimated
12:39PM 57.1758 -50.9407 227° Southwest  Level Estimated
12:40PM 57.0931 -51.1036 227° Southwest  Level Estimated
12:41PM 57.0103 -51.2658 227° Southwest  Level Estimated
12:42PM 56.9272 -51.4273 227° Southwest  Level Estimated
12:43PM 56.8439 -51.5880 227° Southwest  Level Estimated
12:44PM 56.7605 -51.7481 226° Southwest  Level Estimated
12:45PM 56.6768 -51.9074 226° Southwest  Level Estimated
12:46PM 56.5929 -52.0661 226° Southwest  Level Estimated
12:47PM 56.5088 -52.2240 226° Southwest  Level Estimated
12:48PM 56.4245 -52.3812 226° Southwest  Level Estimated
12:49PM 56.3401 -52.5377 226° Southwest  Level Estimated
12:50PM 56.2554 -52.6936 226° Southwest  Level Estimated
12:51PM 56.1705 -52.8487 226° Southwest  Level Estimated
12:52PM 56.0855 -53.0032 225° Southwest  Level Estimated
12:53PM 56.0002 -53.1570 225° Southwest  Level Estimated
12:54PM 55.9147 -53.3101 225° Southwest  Level Estimated
12:55PM 55.8291 -53.4625 225° Southwest  Level Estimated
12:56PM 55.7433 -53.6143 225° Southwest  Level Estimated
12:57PM 55.6573 -53.7653 225° Southwest  Level Estimated
12:58PM 55.5711 -53.9158 225° Southwest  Level Estimated
12:59PM 55.4847 -54.0655 225° Southwest  Level Estimated
01:00PM 55.3982 -54.2146 224° Southwest  Level Estimated
01:01PM 55.3114 -54.3631 224° Southwest  Level Estimated
01:02PM 55.2245 -54.5109 224° Southwest  Level Estimated
01:03PM 55.1374 -54.6581 224° Southwest  Level Estimated
01:04PM 55.0501 -54.8046 224° Southwest  Level Estimated
01:05PM 54.9627 -54.9505 224° Southwest  Level Estimated
01:06PM 54.8750 -55.0958 224° Southwest  Level Estimated
01:07PM 54.7873 -55.2404 224° Southwest  Level Estimated
01:08PM 54.6993 -55.3844 223° Southwest  Level Estimated
01:09PM 54.6111 -55.5277 223° Southwest  Level Estimated
01:10PM 54.5228 -55.6705 223° Southwest  Level Estimated
01:11PM 54.4344 -55.8126 223° Southwest  Level Estimated
01:12PM 54.3457 -55.9542 223° Southwest  Level Estimated
01:13PM 54.2569 -56.0951 223° Southwest  Level Estimated
01:14PM 54.1679 -56.2354 223° Southwest  Level Estimated
01:15PM 54.0788 -56.3751 223° Southwest  Level Estimated
01:15PM 62.4410 -48.7810 223° Southwest 448 516 34,000  Level FlightAware
01:16PM 53.9895 -56.5142 223° Southwest  Level Estimated
01:16PM 62.3980 -48.8990 232° Southwest 449 517 34,000  Level FlightAware
01:16PM 62.3580 -49.0100 232° Southwest 449 517 34,000  Level FlightAware
01:17PM 62.3040 -49.1670 234° Southwest 451 519 34,000  Level FlightAware
01:17PM 62.2620 -49.2810 232° Southwest 451 519 34,000  Level FlightAware
01:18PM 62.2090 -49.4300 233° Southwest 451 519 34,000  Level FlightAware
01:19PM 62.1680 -49.5420 232° Southwest 451 519 34,000  Level FlightAware
01:19PM 62.1160 -49.6850 232° Southwest 452 520 34,000  Level FlightAware
01:20PM 62.0770 -49.7930 232° Southwest 452 520 34,000  Level FlightAware
01:21PM 62.0350 -49.9070 232° Southwest 452 520 34,000  Level FlightAware
01:21PM 61.9750 -50.0760 233° Southwest 448 516 34,000  Level FlightAware
01:22PM 61.9310 -50.2130 236° Southwest 445 512 34,000  Level FlightAware
01:22PM 61.8970 -50.3200 236° Southwest 444 511 34,000  Level FlightAware
01:23PM 61.8540 -50.4500 235° Southwest 443 510 34,000  Level FlightAware
01:24PM 61.8070 -50.5960 236° Southwest 444 511 34,000  Level FlightAware
01:24PM 61.7730 -50.6990 235° Southwest 444 511 34,000  Level FlightAware
01:25PM 61.7250 -50.8430 235° Southwest 442 509 34,000  Level FlightAware
01:25PM 61.6760 -50.9870 234° Southwest 442 509 34,000  Level FlightAware
01:26PM 61.6380 -51.0970 234° Southwest 442 509 34,000  Level FlightAware
01:27PM 61.6040 -51.1970 234° Southwest 442 509 34,000  Level FlightAware
01:27PM 61.5670 -51.3040 234° Southwest 442 509 34,000  Level FlightAware
01:28PM 61.5290 -51.4130 234° Southwest 442 509 34,000  Level FlightAware
01:28PM 61.4910 -51.5220 234° Southwest 442 509 34,000  Level FlightAware
01:29PM 61.4560 -51.6220 234° Southwest 442 509 34,000  Level FlightAware
01:30PM 61.3590 -51.9190 236° Southwest 424 488 34,000  Level FlightAware
01:31PM 61.3230 -52.0230 234° Southwest 424 488 34,000  Level FlightAware
01:31PM 61.2880 -52.1240 234° Southwest 424 488 34,000  Level FlightAware
01:32PM 61.2520 -52.2250 233° Southwest 424 488 34,000  Level FlightAware
01:32PM 61.2170 -52.3260 234° Southwest 424 488 34,000  Level FlightAware
01:33PM 61.1820 -52.4260 234° Southwest 424 488 34,000  Level FlightAware
01:34PM 61.1460 -52.5270 234° Southwest 424 488 34,000  Level FlightAware
01:34PM 61.1110 -52.6280 234° Southwest 424 488 34,000  Level FlightAware
01:35PM 61.0330 -52.8360 232° Southwest 408 470 34,000  Level FlightAware
01:35PM 60.9980 -52.9310 233° Southwest 408 470 34,000  Level FlightAware
01:36PM 60.9640 -53.0260 234° Southwest 408 470 34,000  Level FlightAware
01:37PM 60.9290 -53.1210 233° Southwest 408 470 34,000  Level FlightAware
01:37PM 60.8940 -53.2160 233° Southwest 408 470 34,000  Level FlightAware
01:38PM 60.8590 -53.3100 233° Southwest 408 470 34,000  Level FlightAware
01:38PM 60.8230 -53.4100 234° Southwest 408 470 34,000  Level FlightAware
01:39PM 60.7860 -53.5100 233° Southwest 408 470 34,000  Level FlightAware
01:40PM 60.7510 -53.6050 233° Southwest 408 470 34,000  Level FlightAware
01:40PM 60.7160 -53.6990 233° Southwest 408 470 34,000  Level FlightAware
01:41PM 60.6810 -53.7960 234° Southwest 408 470 34,000  Level FlightAware
01:41PM 60.6460 -53.8900 233° Southwest 408 470 34,000  Level FlightAware
01:42PM 60.6120 -53.9810 233° Southwest 408 470 34,000  Level FlightAware
01:43PM 60.5770 -54.0750 233° Southwest 408 470 34,000  Level FlightAware
01:43PM 60.5420 -54.1690 233° Southwest 408 470 34,000  Level FlightAware
01:44PM 60.5070 -54.2650 234° Southwest 408 470 34,000  Level FlightAware
01:47PM 60.3085 -54.7699 232° Southwest  Level FlightAware Approximate
01:48PM 60.2326 -54.9600 231° Southwest  Level FlightAware Approximate
01:49PM 60.1564 -55.1492 231° Southwest  Level FlightAware Approximate
01:50PM 60.0800 -55.3376 231° Southwest  Level FlightAware Approximate
01:51PM 60.0033 -55.5251 231° Southwest  Level FlightAware Approximate
01:52PM 59.9263 -55.7117 231° Southwest  Level FlightAware Approximate
01:53PM 59.8491 -55.8975 230° Southwest  Level FlightAware Approximate
01:54PM 59.7716 -56.0824 230° Southwest  Level FlightAware Approximate
01:55PM 59.6939 -56.2664 230° Southwest  Level FlightAware Approximate
01:56PM 59.6159 -56.4496 230° Southwest  Level FlightAware Approximate
01:57PM 59.5377 -56.6319 230° Southwest  Level FlightAware Approximate
01:58PM 59.4591 -56.8134 230° Southwest  Level FlightAware Approximate
01:59PM 59.3804 -56.9941 229° Southwest  Level FlightAware Approximate
02:00PM 59.3014 -57.1739 229° Southwest  Level FlightAware Approximate
02:01PM 59.2221 -57.3529 229° Southwest  Level FlightAware Approximate
02:02PM 59.1426 -57.5310 229° Southwest  Level FlightAware Approximate
02:03PM 59.0629 -57.7083 229° Southwest  Level FlightAware Approximate
02:04PM 58.9829 -57.8848 229° Southwest  Level FlightAware Approximate
02:05PM 58.9027 -58.0605 229° Southwest  Level FlightAware Approximate
02:06PM 58.8222 -58.2354 228° Southwest  Level FlightAware Approximate
02:07PM 58.7415 -58.4094 228° Southwest  Level FlightAware Approximate
02:08PM 58.6606 -58.5827 228° Southwest  Level FlightAware Approximate
02:09PM 58.5795 -58.7551 228° Southwest  Level FlightAware Approximate
02:10PM 58.4981 -58.9267 228° Southwest  Level FlightAware Approximate
02:11PM 58.4165 -59.0976 228° Southwest  Level FlightAware Approximate
02:12PM 58.3346 -59.2677 228° Southwest  Level FlightAware Approximate
02:13PM 58.2526 -59.4369 227° Southwest  Level FlightAware Approximate
02:14PM 58.1703 -59.6054 227° Southwest  Level FlightAware Approximate
02:15PM 58.0878 -59.7731 227° Southwest  Level FlightAware Approximate
02:16PM 58.0012 -59.9321 208° Southwest  Level FlightAware Approximate
02:17PM 57.9005 -60.0585 214° Southwest  Level FlightAware Approximate
02:18PM 57.7997 -60.1845 214° Southwest  Level FlightAware Approximate
02:19PM 57.6988 -60.3097 214° Southwest  Level FlightAware Approximate
02:20PM 57.5978 -60.4343 213° Southwest  Level FlightAware Approximate
02:21PM 57.4966 -60.5582 213° Southwest  Level FlightAware Approximate
02:22PM 57.3954 -60.6814 213° Southwest  Level FlightAware Approximate
02:23PM 57.2940 -60.8038 213° Southwest  Level FlightAware Approximate
02:23PM 57.4167 -60.6000 213° Southwest 420 483 34,000  Level Gander Center
02:24PM 57.1924 -60.9256 212° Southwest  Level FlightAware Approximate
02:24PM 57.3000 -60.7000 205° Southwest 420 483 34,000  Level Gander Center
02:25PM 57.0903 -61.0451 212° Southwest  Level FlightAware Approximate
02:25PM 57.2000 -60.7833 204° Southwest 420 483 34,400  Level Gander Center
02:26PM 56.9880 -61.1641 212° Southwest  Level FlightAware Approximate
02:26PM 57.1000 -60.8833 209° Southwest 420 483 34,900  Level Gander Center
02:27PM 56.8877 -61.2848 213° Southwest  Level Estimated
02:27PM 56.9833 -60.9833 205° Southwest 420 483 35,400  Level Gander Center
02:28PM 56.7873 -61.4049 213° Southwest  Level Estimated
02:28PM 56.8667 -61.1000 209° Southwest 410 472 36,000  Level Gander Center
02:29PM 56.7667 -61.1833 205° Southwest 420 483 36,000  Level Gander Center
02:30PM 56.6667 -61.2833 209° Southwest 420 483 36,000  Level Gander Center
02:31PM 56.5667 -61.3667 205° Southwest 420 483 36,000  Level Gander Center
02:32PM 56.4500 -61.4667 205° Southwest 420 483 36,000  Level Gander Center
02:33PM 56.3500 -61.5500 205° Southwest 420 483 36,000  Level Gander Center
02:34PM 56.2333 -61.6500 205° Southwest 430 495 36,000  Level Gander Center
02:35PM 56.1333 -61.7333 205° Southwest 430 495 36,000  Level Gander Center
02:36PM 56.0333 -61.8167 205° Southwest 420 483 36,000  Level Gander Center
02:37PM 55.9333 -61.9000 205° Southwest 420 483 36,000  Level Gander Center
02:38PM 55.8167 -62.0000 206° Southwest 420 483 36,000  Level Gander Center
02:39PM 55.7167 -62.0833 205° Southwest 420 483 36,000  Level Gander Center
02:40PM 55.6167 -62.1667 205° Southwest 430 495 36,000  Level Gander Center
02:41PM 55.5000 -62.2833 210° Southwest 430 495 36,000  Level Gander Center
02:42PM 55.4000 -62.3667 205° Southwest 430 495 36,000  Level Gander Center
02:43PM 55.2833 -62.4500 202° Southwest 430 495 36,000  Level Gander Center
02:44PM 55.1667 -62.5333 202° Southwest 430 495 36,000  Level Gander Center
02:45PM 55.0667 -62.6167 206° Southwest 430 495 36,000  Level Gander Center
02:46PM 54.9500 -62.7000 202° Southwest 430 495 36,000  Level Gander Center
02:47PM 54.8333 -62.7833 202° Southwest 430 495 36,000  Level Gander Center
02:48PM 54.7333 -62.9000 214° Southwest 430 495 36,000  Level Gander Center
02:49PM 54.6667 -63.0667 235° Southwest 430 495 36,000  Level Gander Center
02:50PM 54.5833 -63.2500 232° Southwest 430 495 36,000  Level Gander Center
02:51PM 54.5000 -63.3833 223° Southwest 440 506 36,000  Level Gander Center
02:52PM 54.4333 -63.5500 236° Southwest 430 495 36,000  Level Gander Center
02:54PM 54.2500 -63.8000 219° Southwest 420 483 36,000  Level Moncton Center
02:55PM 54.1667 -63.9167 219° Southwest 420 483 36,000  Level Moncton Center
02:56PM 54.0667 -64.0333 214° Southwest 410 472 36,000  Level Moncton Center
02:57PM 53.9667 -64.1167 206° Southwest 420 483 36,000  Level Moncton Center
02:58PM 53.8500 -64.2000 203° Southwest 430 495 36,000  Level Moncton Center
02:59PM 53.7333 -64.2833 203° Southwest 440 506 36,000  Level Moncton Center
03:00PM 53.6333 -64.3667 206° Southwest 430 495 36,000  Level Moncton Center
03:01PM 53.5167 -64.4500 203° Southwest 430 495 36,000  Level Moncton Center
03:02PM 53.4000 -64.5167 199° South 430 495 36,000  Level Moncton Center
03:03PM 53.3000 -64.6000 206° Southwest 440 506 36,000  Level Moncton Center
03:04PM 53.1833 -64.7333 214° Southwest 440 506 36,000  Level Moncton Center
03:05PM 53.0833 -64.7833 197° South 440 506 36,000  Level Moncton Center
03:06PM 52.9667 -64.8667 203° Southwest 450 518 36,000  Level Moncton Center
03:07PM 52.8500 -64.9167 195° South 440 506 36,000  Level Moncton Center
03:08PM 52.7333 -65.0000 203° Southwest 440 506 36,000  Level Moncton Center
03:09PM 52.6333 -65.0667 202° Southwest 440 506 36,000  Level Moncton Center
03:10PM 52.5000 -65.1333 197° South 440 506 36,000  Level Moncton Center
03:11PM 52.4000 -65.2167 207° Southwest 440 506 36,000  Level Moncton Center
03:12PM 52.2833 -65.2667 195° South 440 506 36,000  Level Moncton Center
03:13PM 52.1667 -65.3500 204° Southwest 440 506 36,000  Level Moncton Center
03:14PM 52.0500 -65.4000 195° South 450 518 36,000  Level Moncton Center
03:15PM 51.9333 -65.4833 204° Southwest 440 506 36,000  Level Moncton Center
03:16PM 51.8167 -65.5333 195° South 440 506 36,000  Level Moncton Center
03:17PM 51.7000 -65.6167 204° Southwest 440 506 36,000  Level Moncton Center
03:18PM 51.5833 -65.6667 195° South 440 506 36,000  Level Moncton Center
03:19PM 51.4667 -65.7333 200° South 440 506 36,000  Level Moncton Center
03:20PM 51.3333 -65.7833 193° South 440 506 36,000  Level Moncton Center
03:21PM 51.2167 -65.8667 204° Southwest 450 518 36,000  Level Moncton Center
03:22PM 51.1000 -65.9167 195° South 450 518 36,000  Level Moncton Center
03:23PM 50.9833 -66.0000 204° Southwest 450 518 36,000  Level Moncton Center
03:24PM 50.8667 -66.0667 200° South 450 518 36,000  Level Moncton Center
03:25PM 50.7500 -66.1167 195° South 450 518 36,000  Level Moncton Center
03:26PM 50.6333 -66.1833 200° South 450 518 36,000  Level Moncton Center
03:27PM 50.5000 -66.2667 202° Southwest 450 518 36,000  Level Moncton Center
03:28PM 50.4000 -66.3167 198° South 450 518 36,000  Level Moncton Center
03:29PM 50.2833 -66.3833 200° South 450 518 36,000  Level Moncton Center
03:30PM 50.1500 -66.4333 194° South 450 518 36,000  Level Moncton Center
03:31PM 50.0333 -66.5167 205° Southwest 450 518 36,000  Level Moncton Center
03:32PM 49.9167 -66.5500 190° South 450 518 36,000  Level Moncton Center
03:33PM 49.8000 -66.6333 205° Southwest 440 506 36,000  Level Moncton Center
03:34PM 49.6833 -66.6667 190° South 440 506 36,000  Level Moncton Center
03:35PM 49.5667 -66.7500 205° Southwest 440 506 36,000  Level Moncton Center
03:36PM 49.4500 -66.8000 196° South 440 506 36,000  Level Moncton Center
03:37PM 49.3333 -66.8667 200° South 430 495 36,000  Level Moncton Center
03:38PM 49.2333 -66.9167 198° South 430 495 36,000  Level Moncton Center
03:39PM 49.1167 -66.9833 201° Southwest 430 495 36,000  Level Moncton Center
03:40PM 49.0000 -67.0333 196° South 430 495 36,000  Level Moncton Center
03:41PM 48.8833 -67.1000 201° Southwest 430 495 36,000  Level Moncton Center
03:42PM 48.7667 -67.1333 191° South 420 483 36,000  Level Moncton Center
03:43PM 48.6500 -67.1833 196° South 430 495 36,000  Level Moncton Center
03:44PM 48.5333 -67.2500 201° Southwest 430 495 36,000  Level Moncton Center
03:45PM 48.4333 -67.3000 198° South 430 495 36,000  Level Moncton Center
03:51PM 47.7520 -67.6410 198° South 424 488 36,000  Level FlightAware
03:51PM 47.6830 -67.6740 198° South 423 487 36,000  Level FlightAware
03:52PM 47.6170 -67.7050 198° South 421 484 36,000  Level FlightAware
03:53PM 47.5510 -67.7350 197° South 420 483 36,000  Level FlightAware
03:53PM 47.4940 -67.7610 197° South 420 483 36,000  Level FlightAware
03:54PM 47.4090 -67.8480 215° Southwest 403 464 36,000  Level FlightAware
03:55PM 47.3510 -67.8980 210° Southwest 405 466 36,000  Level FlightAware
03:55PM 47.3020 -67.9390 210° Southwest 405 466 36,000  Level FlightAware
03:56PM 47.2440 -67.9890 210° Southwest 404 465 36,000  Level FlightAware
03:56PM 47.1790 -68.0440 210° Southwest 402 463 36,000  Level FlightAware
03:57PM 47.1230 -68.0920 210° Southwest 399 459 36,000  Level FlightAware
03:57PM 47.0760 -68.1310 209° Southwest 400 460 36,000  Level FlightAware
03:58PM 47.0170 -68.1810 210° Southwest 401 461 36,000  Level FlightAware
03:59PM 46.9580 -68.2290 209° Southwest 401 461 36,000  Level FlightAware
03:59PM 46.8920 -68.2860 211° Southwest 404 465 36,000  Level FlightAware
04:00PM 46.7840 -68.3760 210° Southwest 402 463 36,000  Level FlightAware
04:01PM 46.7260 -68.4240 210° Southwest 400 460 36,000  Level FlightAware
04:02PM 46.6800 -68.4620 210° Southwest 400 460 36,000  Level FlightAware
04:02PM 46.6150 -68.5160 210° Southwest 398 458 36,000  Level FlightAware
04:03PM 46.5600 -68.5610 209° Southwest 399 459 36,000  Level FlightAware
04:03PM 46.5020 -68.6090 210° Southwest 400 460 36,000  Level FlightAware
04:04PM 46.4490 -68.6520 209° Southwest 401 461 36,000  Level FlightAware
04:05PM 46.3860 -68.7040 210° Southwest 402 463 36,000  Level FlightAware
04:05PM 46.3350 -68.7450 209° Southwest 401 461 36,000  Level FlightAware
04:06PM 46.2780 -68.7910 209° Southwest 399 459 36,000  Level FlightAware
04:06PM 46.2120 -68.8460 210° Southwest 399 459 36,000  Level FlightAware
04:07PM 46.1640 -68.8840 209° Southwest 398 458 36,000  Level FlightAware
04:07PM 46.1100 -68.9280 209° Southwest 398 458 36,000  Level FlightAware
04:08PM 46.0440 -68.9820 210° Southwest 398 458 36,000  Level FlightAware
04:09PM 45.9980 -69.0190 209° Southwest 398 458 36,000  Level FlightAware
04:09PM 45.9390 -69.0660 209° Southwest 395 455 36,000  Level FlightAware
04:10PM 45.8770 -69.1160 209° Southwest 392 451 36,000  Level FlightAware
04:10PM 45.8290 -69.1530 208° Southwest 389 448 36,000  Level FlightAware
04:11PM 45.7750 -69.1970 210° Southwest 389 448 36,000  Level FlightAware
04:12PM 45.7180 -69.2420 209° Southwest 390 449 36,000  Level FlightAware
04:12PM 45.6690 -69.2810 209° Southwest 391 450 36,000  Level FlightAware
04:13PM 45.6020 -69.3340 209° Southwest 391 450 36,000  Level FlightAware
04:13PM 45.5510 -69.3740 209° Southwest 391 450 36,000  Level FlightAware
04:14PM 45.5040 -69.4110 209° Southwest 392 451 36,000  Level FlightAware
04:14PM 45.4430 -69.4600 209° Southwest 393 452 36,000  Level FlightAware
04:15PM 45.3630 -69.5210 208° Southwest 393 452 36,000  Level FlightAware
04:16PM 45.2890 -69.5800 209° Southwest 390 449 36,000  Level FlightAware
04:17PM 45.2230 -69.6320 209° Southwest 392 451 36,000  Level FlightAware
04:17PM 45.1640 -69.6780 209° Southwest 400 460 36,000  Level FlightAware
04:18PM 45.1020 -69.7260 209° Southwest 401 461 36,000  Level FlightAware
04:19PM 45.0190 -69.7890 208° Southwest 402 463 36,000  Level FlightAware
04:20PM 44.9500 -69.8430 209° Southwest 399 459 36,000  Level FlightAware
04:20PM 44.8780 -69.8980 208° Southwest 396 456 36,000  Level FlightAware
04:21PM 44.8160 -69.9460 209° Southwest 393 452 36,000  Level FlightAware
04:22PM 44.7590 -69.9890 208° Southwest 393 452 36,000  Level FlightAware
04:22PM 44.7010 -70.0330 208° Southwest 393 452 36,000  Level FlightAware
04:23PM 44.6510 -70.0720 209° Southwest 394 453 36,000  Level FlightAware
04:23PM 44.5990 -70.1120 209° Southwest 396 456 36,000  Level FlightAware
04:24PM 44.5330 -70.1620 208° Southwest 398 458 36,000  Level FlightAware
04:24PM 44.4820 -70.2010 209° Southwest 401 461 36,000  Level FlightAware
04:25PM 44.4210 -70.2470 208° Southwest 401 461 36,000  Level FlightAware
04:26PM 44.3660 -70.2880 208° Southwest 402 463 36,000  Level FlightAware
04:26PM 44.3080 -70.3320 208° Southwest 403 464 36,000  Level FlightAware
04:27PM 44.2490 -70.3760 208° Southwest 403 464 36,000  Level FlightAware
04:27PM 44.1960 -70.4150 208° Southwest 403 464 36,000  Level FlightAware
04:28PM 44.1330 -70.4620 208° Southwest 401 461 36,000  Level FlightAware
04:29PM 44.0740 -70.5060 208° Southwest 400 460 36,000  Level FlightAware
04:29PM 44.0240 -70.5430 208° Southwest 400 460 36,000  Level FlightAware
04:30PM 43.9650 -70.5870 208° Southwest 400 460 36,000  Level FlightAware
04:30PM 43.9050 -70.6310 208° Southwest 399 459 36,000  Level FlightAware
04:31PM 43.8530 -70.6700 208° Southwest 398 458 36,000  Level FlightAware
04:31PM 43.7970 -70.7120 208° Southwest 397 457 36,000  Level FlightAware
04:32PM 43.7400 -70.7530 207° Southwest 397 457 36,000  Level FlightAware
04:33PM 43.6810 -70.7960 208° Southwest 397 457 36,000  Level FlightAware
04:33PM 43.6200 -70.8410 208° Southwest 400 460 36,000  Level FlightAware
04:34PM 43.5670 -70.8800 208° Southwest 402 463 36,000  Level FlightAware
04:34PM 43.5070 -70.9240 208° Southwest 401 461 36,000  Level FlightAware
04:35PM 43.4530 -70.9630 208° Southwest 403 464 36,000  Level FlightAware
04:36PM 43.3890 -71.0090 208° Southwest 404 465 36,000  Level FlightAware
04:36PM 43.3370 -71.0470 208° Southwest 403 464 36,000  Level FlightAware
04:37PM 43.2770 -71.0900 208° Southwest 402 463 36,000  Level FlightAware
04:37PM 43.2170 -71.1330 208° Southwest 402 463 36,000  Level FlightAware
04:38PM 43.1650 -71.1710 208° Southwest 402 463 36,000  Level FlightAware
04:38PM 43.1070 -71.2130 208° Southwest 403 464 36,000  Level FlightAware
04:39PM 43.0530 -71.2510 207° Southwest 404 465 36,000  Level FlightAware
04:40PM 42.9900 -71.2960 208° Southwest 404 465 36,000  Level FlightAware
04:40PM 42.9310 -71.3390 208° Southwest 405 466 36,000  Level FlightAware
04:41PM 42.8700 -71.3830 208° Southwest 402 463 36,000  Level FlightAware
04:41PM 42.8170 -71.4240 210° Southwest 400 460 36,000  Level FlightAware
04:42PM 42.7580 -71.4680 209° Southwest 400 460 36,000  Level FlightAware
04:42PM 42.7070 -71.5070 209° Southwest 398 458 36,000  Level FlightAware
04:43PM 42.6350 -71.5610 209° Southwest 398 458 36,000  Level FlightAware
04:44PM 42.5780 -71.6040 209° Southwest 400 460 36,000  Level FlightAware
04:44PM 42.5260 -71.6420 208° Southwest 401 461 36,000  Level FlightAware
04:45PM 42.4640 -71.6890 209° Southwest 401 461 36,000  Level FlightAware
04:45PM 42.4160 -71.7240 208° Southwest 399 459 36,000  Level FlightAware
04:46PM 42.3510 -71.7720 209° Southwest 396 456 36,000  Level FlightAware
04:47PM 42.2940 -71.8150 209° Southwest 396 456 36,000  Level FlightAware
04:47PM 42.2420 -71.8530 208° Southwest 397 457 36,000  Level FlightAware
04:48PM 42.1830 -71.8970 209° Southwest 397 457 36,000  Level FlightAware
04:48PM 42.1270 -71.9380 209° Southwest 397 457 36,000  Level FlightAware
04:49PM 42.0680 -71.9810 208° Southwest 398 458 36,000  Level FlightAware
04:50PM 42.0190 -72.0170 209° Southwest 398 458 36,000  Level FlightAware
04:50PM 41.9540 -72.0650 209° Southwest 400 460 36,000  Level FlightAware
04:51PM 41.9050 -72.1000 208° Southwest 400 460 36,000  Level FlightAware
04:51PM 41.8510 -72.1390 208° Southwest 399 459 36,000  Level FlightAware
04:52PM 41.7840 -72.1880 209° Southwest 400 460 36,000  Level FlightAware
04:53PM 41.7260 -72.2300 208° Southwest 402 463 36,000  Level FlightAware
04:53PM 41.6710 -72.2700 209° Southwest 402 463 36,000  Level FlightAware
04:54PM 41.6090 -72.3150 208° Southwest 404 465 36,000  Level FlightAware
04:54PM 41.5430 -72.3630 209° Southwest 405 466 36,000  Level FlightAware
04:55PM 41.4830 -72.4050 208° Southwest 405 466 36,000  Level FlightAware
04:56PM 41.4310 -72.4430 209° Southwest 406 467 36,000  Level FlightAware
04:56PM 41.3550 -72.4970 208° Southwest 407 468 36,000  Level FlightAware
04:57PM 41.2970 -72.5390 209° Southwest 409 471 36,000  Level FlightAware
04:58PM 41.2430 -72.5770 208° Southwest 408 470 36,000  Level FlightAware
04:58PM 41.1800 -72.6220 208° Southwest 406 467 36,000  Level FlightAware
04:59PM 41.1240 -72.6620 208° Southwest 407 468 36,000  Level FlightAware
04:59PM 41.0680 -72.7020 208° Southwest 408 470 36,000  Level FlightAware
05:00PM 41.0180 -72.7370 208° Southwest 409 471 36,000  Level FlightAware
05:00PM 40.9472 -72.7867 208° Southwest 410 472 36,000  Level FlightAware ADS-B
05:01PM 40.8951 -72.8316 213° Southwest 406 467 36,000  Level FlightAware ADS-B
05:02PM 40.8440 -72.8821 217° Southwest 406 467 36,000  Level FlightAware ADS-B
05:02PM 40.7984 -72.9269 217° Southwest 407 468 36,000  Level FlightAware ADS-B
05:03PM 40.7531 -72.9709 216° Southwest 408 470 36,000  Level FlightAware ADS-B
05:03PM 40.7032 -73.0194 216° Southwest 409 471 36,000  Level FlightAware ADS-B
05:04PM 40.6571 -73.0640 216° Southwest 408 470 36,000  Level FlightAware ADS-B
05:04PM 40.6114 -73.1081 216° Southwest 408 470 36,000  Level FlightAware ADS-B
05:05PM 40.5617 -73.1561 216° Southwest 407 468 36,000  Level FlightAware ADS-B
05:05PM 40.5137 -73.2024 216° Southwest 408 470 36,000  Level FlightAware ADS-B
05:06PM 40.4690 -73.2460 217° Southwest 408 470 36,000  Level FlightAware
05:06PM 40.3999 -73.3118 216° Southwest 410 472 36,000  Level FlightAware ADS-B
05:07PM 40.3476 -73.3617 216° Southwest 410 472 36,000  Level FlightAware ADS-B
05:08PM 40.2698 -73.4360 216° Southwest 411 473 36,000  Level FlightAware ADS-B
05:08PM 40.2201 -73.4834 216° Southwest 412 474 36,000  Level FlightAware ADS-B
05:09PM 40.1704 -73.5307 216° Southwest 413 475 36,000  Level FlightAware ADS-B
05:09PM 40.1216 -73.5771 216° Southwest 414 476 36,000  Level FlightAware ADS-B
05:10PM 40.0631 -73.6324 216° Southwest 416 479 36,000  Level FlightAware ADS-B
05:11PM 40.0158 -73.6772 216° Southwest 419 482 36,000  Level FlightAware ADS-B
05:11PM 39.9666 -73.7235 216° Southwest 420 483 36,000  Level FlightAware ADS-B
05:12PM 39.9183 -73.7690 216° Southwest 420 483 36,000  Level FlightAware ADS-B
05:12PM 39.8574 -73.8262 216° Southwest 421 484 36,000  Level FlightAware ADS-B
05:13PM 39.8100 -73.8710 216° Southwest 420 483 36,000  Level FlightAware
05:13PM 39.7801 -73.8987 215° Southwest 420 483 36,000  Level FlightAware ADS-B
05:13PM 39.7615 -73.9152 214° Southwest 424 488 36,000  Level FlightAware ADS-B
05:14PM 39.7017 -73.9617 211° Southwest 426 490 36,000  Level FlightAware ADS-B
05:14PM 39.6490 -74.0025 211° Southwest 428 493 36,000 360 Level FlightAware ADS-B
05:15PM 39.5979 -74.0428 211° Southwest 426 490 36,400 960 Climbing FlightAware ADS-B
05:15PM 39.5463 -74.0837 211° Southwest 426 490 37,000 1,200 Climbing FlightAware ADS-B
05:16PM 39.4938 -74.1252 211° Southwest 424 488 37,700 960 Climbing FlightAware ADS-B
05:16PM 39.4438 -74.1647 211° Southwest 427 491 38,000 240 Climbing FlightAware ADS-B
05:17PM 39.3927 -74.2050 211° Southwest 430 495 38,000  Level FlightAware ADS-B
05:17PM 39.3375 -74.2485 211° Southwest 430 495 38,000  Level FlightAware ADS-B
05:18PM 39.2836 -74.2908 211° Southwest 429 494 38,000  Level FlightAware ADS-B
05:19PM 39.2232 -74.3381 211° Southwest 429 494 38,000  Level FlightAware ADS-B
05:19PM 39.1657 -74.3831 211° Southwest 429 494 38,000  Level FlightAware ADS-B
05:20PM 39.1143 -74.4233 211° Southwest 431 496 38,000  Level FlightAware ADS-B
05:20PM 39.0601 -74.4656 211° Southwest 432 497 38,000  Level FlightAware ADS-B
05:21PM 39.0083 -74.5059 211° Southwest 433 498 38,000  Level FlightAware ADS-B
05:21PM 38.9565 -74.5460 211° Southwest 433 498 38,000  Level FlightAware ADS-B
05:22PM 38.9053 -74.5857 211° Southwest 433 498 38,000  Level FlightAware ADS-B
05:22PM 38.8535 -74.6259 211° Southwest 434 499 38,000  Level FlightAware ADS-B
05:23PM 38.7984 -74.6685 211° Southwest 436 502 38,000  Level FlightAware ADS-B
05:23PM 38.7339 -74.7182 211° Southwest 436 502 38,000  Level FlightAware ADS-B
05:24PM 38.6801 -74.7597 211° Southwest 438 504 38,000  Level FlightAware ADS-B
05:24PM 38.6240 -74.8027 211° Southwest 439 505 38,000  Level FlightAware ADS-B
05:25PM 38.5664 -74.8469 211° Southwest 441 507 38,000  Level FlightAware ADS-B
05:25PM 38.5137 -74.8872 211° Southwest 442 509 38,000  Level FlightAware ADS-B
05:26PM 38.4559 -74.9314 211° Southwest 445 512 38,000  Level FlightAware ADS-B
05:27PM 38.3970 -74.9760 211° Southwest 438 504 38,000  Level FlightAware
05:27PM 38.3536 -75.0094 211° Southwest 445 512 38,000  Level FlightAware ADS-B
05:27PM 38.3016 -75.0490 211° Southwest 444 511 38,000  Level FlightAware ADS-B
05:28PM 38.2455 -75.0916 211° Southwest 443 510 38,000  Level FlightAware ADS-B
05:29PM 38.1892 -75.1342 211° Southwest 443 510 38,000  Level FlightAware ADS-B
05:29PM 38.1450 -75.1680 211° Southwest 435 501 38,000  Level FlightAware
05:29PM 38.1138 -75.1912 210° Southwest 443 510 38,000  Level FlightAware ADS-B
05:30PM 38.0609 -75.2310 211° Southwest 443 510 38,000  Level FlightAware ADS-B
05:30PM 38.0080 -75.2710 211° Southwest 443 510 38,000  Level FlightAware ADS-B
05:31PM 37.9532 -75.3121 211° Southwest 442 509 38,000  Level FlightAware ADS-B
05:31PM 37.8978 -75.3537 211° Southwest 441 507 38,000  Level FlightAware ADS-B
05:32PM 37.8250 -75.4080 211° Southwest 431 496 38,000  Level FlightAware
05:33PM 37.7640 -75.4540 211° Southwest 431 496 38,000  Level FlightAware
05:33PM 37.6794 -75.5170 211° Southwest 437 503 38,000  Level FlightAware ADS-B
05:34PM 37.6257 -75.5570 211° Southwest 438 504 38,000  Level FlightAware ADS-B
05:34PM 37.5710 -75.5976 210° Southwest 439 505 38,000  Level FlightAware ADS-B
05:35PM 37.5184 -75.6366 210° Southwest 439 505 38,000  Level FlightAware ADS-B
05:35PM 37.4607 -75.6793 210° Southwest 438 504 38,000  Level FlightAware ADS-B
05:36PM 37.3920 -75.7300 210° Southwest 432 497 38,000  Level FlightAware
05:37PM 37.3420 -75.7670 210° Southwest 433 498 38,000  Level FlightAware
05:37PM 37.2680 -75.8210 210° Southwest 435 501 38,000  Level FlightAware
05:38PM 37.2386 -75.8430 211° Southwest 442 509 38,000  Level FlightAware ADS-B
05:38PM 37.1814 -75.8850 210° Southwest 443 510 38,000  Level FlightAware ADS-B
05:39PM 37.1261 -75.9256 210° Southwest 441 507 38,000  Level FlightAware ADS-B
05:39PM 37.0728 -75.9646 210° Southwest 440 506 38,000  Level FlightAware ADS-B
05:40PM 37.0189 -76.0038 210° Southwest 438 504 38,000  Level FlightAware ADS-B
05:40PM 36.9640 -76.0439 210° Southwest 440 506 38,000  Level FlightAware ADS-B
05:41PM 36.9254 -76.0724 211° Southwest 440 506 38,000  Level FlightAware ADS-B
05:41PM 36.9026 -76.0960 220° Southwest 436 502 38,000  Level FlightAware ADS-B
05:41PM 36.8896 -76.1144 229° Southwest 434 499 38,000  Level FlightAware ADS-B
05:42PM 36.8530 -76.1740 233° Southwest 430 495 38,000  Level FlightAware
05:42PM 36.7950 -76.2670 232° Southwest 433 498 38,000  Level FlightAware
05:43PM 36.7630 -76.3200 233° Southwest 433 498 38,000  Level FlightAware
05:43PM 36.7130 -76.3980 231° Southwest 437 503 38,000  Level FlightAware
05:44PM 36.6450 -76.4940 229° Southwest 442 509 38,000  Level FlightAware
05:45PM 36.5880 -76.5570 222° Southwest 440 506 38,000  Level FlightAware
05:45PM 36.5380 -76.6120 221° Southwest 439 505 38,000  Level FlightAware
05:46PM 36.4880 -76.6680 222° Southwest 438 504 38,000  Level FlightAware
05:46PM 36.4350 -76.7250 221° Southwest 435 501 38,000  Level FlightAware
05:47PM 36.3660 -76.7810 213° Southwest 438 504 38,000  Level FlightAware
05:48PM 36.2960 -76.8350 212° Southwest 450 518 38,000  Level FlightAware
05:48PM 36.2300 -76.8760 207° Southwest 456 525 38,000  Level FlightAware
05:49PM 36.1600 -76.9020 197° South 458 527 38,000  Level FlightAware
05:50PM 36.0880 -76.9300 197° South 458 527 38,000  Level FlightAware
05:50PM 36.0200 -76.9570 198° South 459 528 38,000  Level FlightAware
05:51PM 35.9550 -76.9820 197° South 459 528 38,000  Level FlightAware
05:51PM 35.8900 -77.0060 197° South 459 528 38,000  Level FlightAware
05:52PM 35.8260 -77.0300 197° South 459 528 38,000  Level FlightAware
05:53PM 35.7640 -77.0540 197° South 459 528 38,000  Level FlightAware
05:53PM 35.7020 -77.0770 197° South 459 528 38,000  Level FlightAware
05:54PM 35.6390 -77.1010 197° South 459 528 38,000  Level FlightAware
05:54PM 35.5760 -77.1250 197° South 459 528 38,000  Level FlightAware
05:55PM 35.5120 -77.1490 197° South 459 528 38,000  Level FlightAware
05:56PM 35.4500 -77.1720 197° South 459 528 38,000  Level FlightAware
05:56PM 35.3870 -77.1950 197° South 459 528 38,000  Level FlightAware
05:57PM 35.3250 -77.2190 198° South 459 528 38,000  Level FlightAware
05:57PM 35.2630 -77.2420 197° South 459 528 38,000  Level FlightAware
05:58PM 35.2010 -77.2650 197° South 459 528 38,000  Level FlightAware
05:59PM 35.1420 -77.2870 197° South 459 528 38,000  Level FlightAware
05:59PM 35.0800 -77.3100 197° South 459 528 38,000  Level FlightAware
06:00PM 35.0180 -77.3330 197° South 459 528 38,000  Level FlightAware
06:00PM 34.9560 -77.3570 198° South 459 528 38,000  Level FlightAware
06:01PM 34.6722 -77.4761 198° South 466 536 38,000  Level Washington Center
06:06PM 34.0050 -77.7220 198° South 474 545 38,000  Level FlightAware
06:07PM 33.9300 -77.7500 197° South 475 547 38,000  Level FlightAware
06:08PM 33.8620 -77.7750 197° South 475 547 38,000  Level FlightAware
06:08PM 33.7840 -77.8040 197° South 477 549 38,000  Level FlightAware
06:09PM 33.7070 -77.8320 197° South 477 549 38,000  Level FlightAware
06:09PM 33.6380 -77.8570 197° South 477 549 38,000  Level FlightAware
06:10PM 33.6180 -77.8650 198° South 477 549 38,000  Level FlightAware
06:11PM 33.5540 -77.8880 197° South 477 549 38,000  Level FlightAware
06:11PM 33.4870 -77.9130 197° South 477 549 38,000  Level FlightAware
06:12PM 33.6850 -77.8400 17° North 38,000  Level FlightAware
06:13PM 33.1690 -78.0290 197° South 478 550 38,000  Level FlightAware
06:13PM 33.1070 -78.0510 197° South 479 551 38,000  Level FlightAware
06:14PM 33.0250 -78.0810 197° South 479 551 38,000  Level FlightAware
06:15PM 32.9270 -78.1160 197° South 480 552 38,000  Level FlightAware
06:16PM 32.8180 -78.1550 197° South 480 552 38,000  Level FlightAware
06:16PM 32.7560 -78.1780 197° South 479 551 38,000  Level FlightAware
06:17PM 32.6710 -78.2080 197° South 479 551 38,000  Level FlightAware
06:18PM 32.5650 -78.2460 197° South 479 551 38,000  Level FlightAware
06:18PM 32.4680 -78.2810 197° South 479 551 38,000  Level FlightAware
06:19PM 32.4060 -78.3030 197° South 479 551 38,000  Level FlightAware
06:20PM 32.3240 -78.3320 197° South 480 552 38,000  Level FlightAware
06:20PM 32.3240 -78.3320 197° South 481 554 38,000  Level FlightAware
06:21PM 32.2580 -78.3540 196° South 481 554 38,000  Level FlightAware
06:22PM 32.1930 -78.3760 196° South 481 554 38,000  Level FlightAware
06:22PM 32.3200 -78.3330 16° North 481 554 38,000  Level FlightAware
06:23PM 32.2530 -78.3560 196° South 481 554 38,000  Level FlightAware
06:23PM 32.1870 -78.3780 196° South 481 554 38,000  Level FlightAware
06:24PM 32.1200 -78.4010 196° South 481 554 38,000  Level FlightAware
06:25PM 32.0550 -78.4230 196° South 481 554 38,000  Level FlightAware
06:25PM 31.9890 -78.4450 196° South 481 554 38,000  Level FlightAware
06:26PM 31.9220 -78.4680 196° South 481 554 38,000  Level FlightAware
06:26PM 31.8570 -78.4900 196° South 481 554 38,000  Level FlightAware
06:27PM 31.7910 -78.5120 196° South 481 554 38,000  Level FlightAware
06:28PM 31.7260 -78.5340 196° South 481 554 38,000  Level FlightAware
06:28PM 31.6580 -78.5570 196° South 481 554 38,000  Level FlightAware
06:29PM 31.5930 -78.5790 196° South 481 554 38,000  Level FlightAware
06:29PM 31.5270 -78.6010 196° South 481 554 38,000  Level FlightAware
06:30PM 31.4600 -78.6230 196° South 481 554 38,000  Level FlightAware
06:31PM 31.3950 -78.6450 196° South 481 554 38,000  Level FlightAware
06:31PM 31.3290 -78.6670 196° South 481 554 38,000  Level FlightAware
06:32PM 30.7319 -78.8906 196° South 471 542 38,000  Level Jacksonville Center
06:34PM 30.5108 -78.9667 197° South 450 518 38,000  Level Miami Center
06:35PM 30.3828 -79.0122 197° South 466 536 38,000  Level Miami Center
06:36PM 30.2633 -79.0650 201° Southwest 471 542 38,000  Level Miami Center
06:37PM 30.1436 -79.1178 201° Southwest 470 541 38,000  Level Miami Center
06:38PM 30.0069 -79.1842 203° Southwest 470 541 38,000  Level Miami Center
06:39PM 29.8853 -79.2367 201° Southwest 480 552 38,000  Level Miami Center
06:40PM 29.7614 -79.2889 200° South 480 552 38,000  Level Miami Center
06:41PM 29.6142 -79.3525 201° Southwest 474 545 38,000  Level Miami Center
06:47PM 28.8770 -79.6070 201° Southwest 453 521 38,000  Level FlightAware
06:48PM 28.8010 -79.6210 189° South 459 528 38,000  Level FlightAware
06:48PM 28.7420 -79.6320 189° South 458 527 38,000  Level FlightAware
06:49PM 28.6430 -79.6490 189° South 456 525 38,000  Level FlightAware
06:50PM 28.5750 -79.6620 190° South 456 525 38,000  Level FlightAware
06:50PM 28.4980 -79.6750 188° South 456 525 38,000  Level FlightAware
06:51PM 28.4270 -79.6880 189° South 456 525 38,000  Level FlightAware
06:51PM 28.3450 -79.7030 189° South 456 525 38,000  Level FlightAware
06:52PM 28.2780 -79.7150 189° South 457 526 38,000  Level FlightAware
06:52PM 28.2070 -79.7270 188° South 457 526 38,000  Level FlightAware
06:53PM 28.1310 -79.7410 189° South 458 527 38,000  Level FlightAware
06:54PM 28.0590 -79.7540 189° South 459 528 38,000  Level FlightAware
06:54PM 27.9830 -79.7670 189° South 453 521 38,000  Level FlightAware
06:55PM 27.9220 -79.7870 196° South 462 532 38,000  Level FlightAware
06:55PM 27.8650 -79.8120 201° Southwest 462 532 38,000  Level FlightAware
06:56PM 27.7790 -79.8480 200° South 462 532 38,000  Level FlightAware
06:56PM 27.7090 -79.8770 200° South 462 532 38,000  Level FlightAware
06:57PM 27.6470 -79.9030 200° South 462 532 38,000  Level FlightAware
06:58PM 27.5650 -79.9370 200° South 460 529 38,000  Level FlightAware
06:58PM 27.4970 -79.9660 201° Southwest 461 531 38,000  Level FlightAware
06:59PM 27.4320 -79.9930 200° South 463 533 38,000  Level FlightAware
06:59PM 27.3520 -80.0260 200° South 464 534 38,000  Level FlightAware
07:00PM 27.2800 -80.0560 200° South 464 534 38,000  Level FlightAware
07:01PM 27.2110 -80.0850 200° South 465 535 38,000  Level FlightAware
07:01PM 27.1460 -80.1110 200° South 465 535 38,000  Level FlightAware
07:02PM 27.0640 -80.1450 200° South 468 539 38,000  Level FlightAware
07:02PM 27.0010 -80.1710 200° South 476 548 38,000  Level FlightAware
07:03PM 26.9200 -80.2050 201° Southwest 477 549 38,000  Level FlightAware
07:03PM 26.8550 -80.2310 200° South 479 551 38,000  Level FlightAware
07:04PM 26.7620 -80.2690 200° South 479 551 38,000  Level FlightAware
07:05PM 26.6890 -80.2990 200° South 479 551 38,000  Level FlightAware
07:05PM 26.6170 -80.3290 200° South 479 551 38,000  Level FlightAware
07:06PM 26.5490 -80.3570 200° South 477 549 38,000  Level FlightAware
07:07PM 26.4640 -80.3920 200° South 467 537 38,000  Level FlightAware
07:07PM 26.3880 -80.4230 200° South 467 537 38,000  Level FlightAware
07:08PM 26.3060 -80.4560 200° South 467 537 38,000  Level FlightAware
07:08PM 26.2420 -80.4820 200° South 467 537 38,000  Level FlightAware
07:09PM 26.1610 -80.5150 200° South 477 549 38,000  Level FlightAware
07:10PM 26.0760 -80.5490 200° South 477 549 38,000  Level FlightAware
07:10PM 26.0060 -80.5780 200° South 478 550 38,000  Level FlightAware
07:11PM 25.9320 -80.6080 200° South 478 550 38,000  Level FlightAware
07:11PM 25.8600 -80.6370 200° South 477 549 38,000  Level FlightAware
07:12PM 25.7860 -80.6670 200° South 464 534 38,000  Level FlightAware
07:13PM 25.7150 -80.6950 200° South 463 533 38,000  Level FlightAware
07:13PM 25.6430 -80.7250 201° Southwest 465 535 38,000  Level FlightAware
07:13PM 25.6130 -80.7420 207° Southwest 465 535 38,000  Level FlightAware
07:14PM 25.5580 -80.7990 223° Southwest 466 536 38,000  Level FlightAware
07:15PM 25.4950 -80.8690 225° Southwest 468 539 38,000  Level FlightAware
07:15PM 25.4430 -80.9280 226° Southwest 469 540 38,000  Level FlightAware
07:16PM 25.3880 -80.9900 226° Southwest 468 539 38,000  Level FlightAware
07:16PM 25.3350 -81.0490 225° Southwest 469 540 38,000  Level FlightAware
07:17PM 25.2800 -81.1110 226° Southwest 470 541 38,000  Level FlightAware
07:18PM 25.2270 -81.1700 225° Southwest 470 541 38,000  Level FlightAware
07:18PM 25.1710 -81.2320 225° Southwest 477 549 38,000  Level FlightAware
07:19PM 25.1180 -81.2910 225° Southwest 477 549 38,000  Level FlightAware
07:19PM 25.0630 -81.3520 225° Southwest 478 550 38,000  Level FlightAware
07:20PM 25.0090 -81.4130 226° Southwest 478 550 38,000  Level FlightAware
07:20PM 24.9530 -81.4750 225° Southwest 478 550 38,000 -300 Level FlightAware
07:21PM 24.9000 -81.5340 225° Southwest 481 554 37,700 -780 Descending FlightAware
07:22PM 24.8440 -81.5950 225° Southwest 482 555 37,100 -1,020 Descending FlightAware
07:22PM 24.7880 -81.6570 225° Southwest 480 552 36,500 -1,080 Descending FlightAware
07:23PM 24.7340 -81.7170 225° Southwest 475 547 35,900 -1,020 Descending FlightAware
07:23PM 24.6790 -81.7770 225° Southwest 467 537 35,300 -1,080 Descending FlightAware
07:24PM 24.6250 -81.8370 225° Southwest 468 539 34,700 -1,500 Descending FlightAware
07:25PM 24.5730 -81.8940 225° Southwest 474 545 33,600 -1,800 Descending FlightAware
07:25PM 24.5180 -81.9550 225° Southwest 461 531 32,600 -1,800 Descending FlightAware
07:26PM 24.4650 -82.0130 225° Southwest 460 529 31,500 -1,800 Descending FlightAware
07:26PM 24.4220 -82.0600 225° Southwest 454 522 30,700 -1,860 Descending FlightAware
07:27PM 24.3470 -82.1420 225° Southwest 438 504 29,100 -1,860 Descending FlightAware
07:28PM 24.2990 -82.1940 225° Southwest 434 499 28,200 -1,740 Descending FlightAware
07:28PM 24.2450 -82.2520 224° Southwest 434 499 27,100 -1,320 Descending FlightAware
07:29PM 24.1750 -82.3290 225° Southwest 421 484 26,200 -1,260 Descending FlightAware
07:30PM 24.1160 -82.3930 225° Southwest 414 476 25,100 -1,680 Descending FlightAware
07:31PM 24.0450 -82.4640 222° Southwest 410 472 23,600 -1,020 Descending FlightAware
07:31PM 24.0000 -82.5070 221° Southwest 410 472 23,600  Level FlightAware
07:32PM 23.9560 -82.5480 220° Southwest 410 472 23,600  Level FlightAware
07:33PM 23.9110 -82.5910 221° Southwest 410 472 23,600  Level FlightAware
07:33PM 23.8670 -82.6330 221° Southwest 410 472 23,600  Level FlightAware
07:34PM 23.8230 -82.6750 221° Southwest 410 472 23,600  Level FlightAware
07:38PM 23.3612 -82.5273 164° South  Level Estimated
07:39PM 23.2375 -82.4879 164° South  Level Estimated
07:40PM 23.1138 -82.4486 164° South  Level Estimated
07:41PM 22.9900 -82.4094 164° South  Level Estimated
07:42PM 22.9891 -82.4091 164° South  Level Estimated
07:43PM 22.9891 -82.4091 51° Northeast  Level Estimated
07:44PM 22.9891 -82.4091 51° Northeast  Level Estimated
07:45PM 22.9891 -82.4091 51° Northeast  Level Estimated
07:46PM 22.9891 -82.4091 51° Northeast  Level Estimated
07:47PM 22.9891 -82.4091 51° Northeast  Level Estimated
07:48PM 22.9891 -82.4091 51° Northeast  Level Estimated
07:49PM 22.9891 -82.4091 51° Northeast  Level Estimated
07:50PM 22.9891 -82.4091 51° Northeast  Level Estimated
07:51PM 22.9891 -82.4091 51° Northeast  Level Estimated
07:52PM 22.9891 -82.4091 51° Northeast  Level Estimated
07:53PM 22.9891 -82.4091 51° Northeast  Level Estimated
07:54PM 22.9891 -82.4091 51° Northeast  Level Estimated
07:55PM 22.9891 -82.4091 51° Northeast  Level Estimated
07:56PM 22.9891 -82.4091 51° Northeast  Level Estimated
07:57PM 22.9891 -82.4091 51° Northeast  Level Estimated
07:58PM 22.9891 -82.4091 51° Northeast  Level Estimated
07:59PM 22.9891 -82.4091 51° Northeast  Level Estimated
08:00PM 22.9891 -82.4091 51° Northeast  Level Estimated
08:01PM 22.9891 -82.4091 51° Northeast  Level Estimated
08:02PM 22.9891 -82.4091 51° Northeast  Level Estimated
08:03PM 22.9891 -82.4091 51° Northeast  Level Estimated